createdAt,value
2022-11-15T00:00:59.831Z,10.20
2022-11-15T00:01:59.883Z,15.20
2022-11-15T00:02:59.812Z,10.50
2022-11-15T00:03:59.801Z,6.90
2022-11-15T00:04:59.784Z,5.00
2022-11-15T00:05:59.779Z,7.40
2022-11-15T00:06:59.822Z,6.40
2022-11-15T00:07:59.783Z,5.80
2022-11-15T00:08:59.770Z,7.10
2022-11-15T00:09:59.731Z,6.40
2022-11-15T00:10:59.722Z,5.00
2022-11-15T00:11:59.712Z,5.30
2022-11-15T00:12:59.726Z,5.50
2022-11-15T00:13:59.690Z,6.80
2022-11-15T00:14:59.699Z,6.20
2022-11-15T00:15:59.697Z,5.10
2022-11-15T00:16:59.661Z,5.50
2022-11-15T00:17:59.646Z,5.00
2022-11-15T00:18:59.639Z,5.90
2022-11-15T00:19:59.648Z,9.40
2022-11-15T00:20:59.621Z,5.40
2022-11-15T00:21:59.606Z,7.10
2022-11-15T00:22:59.634Z,6.20
2022-11-15T00:23:59.615Z,11.80
2022-11-15T00:24:59.601Z,11.80
2022-11-15T00:25:59.597Z,8.40
2022-11-15T00:26:59.560Z,11.80
2022-11-15T00:27:59.544Z,7.90
2022-11-15T00:28:59.536Z,7.30
2022-11-15T00:29:59.522Z,9.00
2022-11-15T00:30:59.513Z,10.90
2022-11-15T00:31:59.533Z,6.50
2022-11-15T00:32:59.499Z,5.90
2022-11-15T00:33:59.493Z,7.30
2022-11-15T00:34:59.518Z,6.90
2022-11-15T00:35:59.461Z,7.30
2022-11-15T00:36:59.456Z,7.00
2022-11-15T00:37:59.441Z,6.60
2022-11-15T00:38:59.433Z,6.70
2022-11-15T00:39:59.444Z,5.60
2022-11-15T00:40:59.436Z,5.40
2022-11-15T00:41:59.451Z,6.40
2022-11-15T00:42:59.389Z,5.80
2022-11-15T00:43:59.456Z,6.40
2022-11-15T00:44:59.374Z,4.60
2022-11-15T00:45:59.386Z,7.00
2022-11-15T00:46:59.352Z,6.00
2022-11-15T00:47:59.361Z,6.70
2022-11-15T00:48:59.330Z,5.10
2022-11-15T00:49:59.339Z,7.00
2022-11-15T00:50:59.351Z,6.40
2022-11-15T00:51:59.304Z,6.40
2022-11-15T00:52:59.293Z,9.40
2022-11-15T00:53:59.290Z,5.60
2022-11-15T00:54:59.269Z,7.90
2022-11-15T00:56:05.768Z,6.60
2022-11-15T00:56:59.275Z,8.40
2022-11-15T00:57:59.232Z,7.20
2022-11-15T00:58:59.229Z,7.50
2022-11-15T00:59:59.211Z,7.40
2022-11-15T01:00:59.267Z,5.60
2022-11-15T01:01:59.218Z,7.20
2022-11-15T01:02:59.187Z,7.30
2022-11-15T01:04:01.467Z,6.70
2022-11-15T01:04:59.174Z,7.40
2022-11-15T01:05:59.152Z,6.50
2022-11-15T01:06:59.230Z,6.60
2022-11-15T01:07:59.160Z,7.80
2022-11-15T01:08:59.133Z,5.80
2022-11-15T01:09:59.116Z,8.70
2022-11-15T01:10:59.110Z,7.30
2022-11-15T01:11:59.134Z,8.00
2022-11-15T01:12:59.096Z,8.00
2022-11-15T01:13:59.065Z,7.90
2022-11-15T01:14:59.076Z,7.10
2022-11-15T01:15:59.046Z,8.10
2022-11-15T01:16:59.040Z,6.50
2022-11-15T01:17:59.055Z,9.10
2022-11-15T01:18:59.020Z,7.40
2022-11-15T01:19:59.007Z,5.70
2022-11-15T01:20:58.999Z,7.70
2022-11-15T01:21:58.982Z,6.10
2022-11-15T01:22:59.011Z,8.00
2022-11-15T01:23:58.963Z,6.10
2022-11-15T01:24:58.959Z,8.60
2022-11-15T01:25:58.948Z,7.80
2022-11-15T01:26:58.942Z,6.50
2022-11-15T01:27:58.924Z,7.50
2022-11-15T01:28:58.932Z,7.40
2022-11-15T01:29:58.904Z,7.50
2022-11-15T01:30:58.892Z,7.60
2022-11-15T01:31:58.883Z,6.80
2022-11-15T01:32:58.873Z,7.40
2022-11-15T01:33:58.899Z,7.10
2022-11-15T01:34:58.860Z,7.40
2022-11-15T01:35:58.839Z,9.30
2022-11-15T01:36:58.831Z,8.10
2022-11-15T01:37:58.821Z,8.40
2022-11-15T01:38:58.821Z,10.40
2022-11-15T01:39:58.818Z,14.30
2022-11-15T01:40:58.793Z,15.30
2022-11-15T01:41:58.779Z,26.50
2022-11-15T01:42:58.777Z,14.40
2022-11-15T01:43:58.755Z,12.60
2022-11-15T01:44:58.751Z,11.40
2022-11-15T01:45:58.765Z,10.30
2022-11-15T01:46:58.730Z,7.60
2022-11-15T01:47:58.715Z,6.50
2022-11-15T01:48:58.721Z,6.80
2022-11-15T01:49:58.710Z,5.60
2022-11-15T01:50:58.707Z,4.40
2022-11-15T01:51:58.695Z,5.80
2022-11-15T01:52:58.669Z,6.00
2022-11-15T01:53:58.659Z,6.40
2022-11-15T01:54:58.660Z,5.30
2022-11-15T01:55:58.679Z,4.90
2022-11-15T01:56:58.646Z,6.00
2022-11-15T01:57:58.613Z,4.70
2022-11-15T01:58:58.611Z,4.30
2022-11-15T01:59:58.592Z,5.00
2022-11-15T02:00:58.650Z,7.60
2022-11-15T02:01:58.573Z,6.40
2022-11-15T02:02:58.585Z,4.60
2022-11-15T02:03:58.572Z,5.80
2022-11-15T02:04:58.540Z,4.80
2022-11-15T02:05:58.531Z,4.90
2022-11-15T02:06:58.563Z,7.00
2022-11-15T02:07:58.524Z,4.50
2022-11-15T02:08:58.504Z,5.90
2022-11-15T02:09:58.532Z,5.60
2022-11-15T02:10:58.482Z,4.40
2022-11-15T02:11:58.465Z,5.60
2022-11-15T02:12:58.463Z,4.50
2022-11-15T02:13:58.450Z,4.60
2022-11-15T02:14:58.441Z,5.20
2022-11-15T02:16:02.794Z,7.00
2022-11-15T02:16:58.422Z,6.00
2022-11-15T02:17:58.411Z,6.80
2022-11-15T02:18:58.406Z,3.90
2022-11-15T02:19:58.391Z,4.20
2022-11-15T02:20:58.392Z,5.10
2022-11-15T02:21:58.366Z,4.40
2022-11-15T02:22:58.361Z,5.60
2022-11-15T02:23:58.349Z,4.30
2022-11-15T02:24:58.338Z,5.00
2022-11-15T02:25:58.341Z,5.70
2022-11-15T02:26:58.317Z,4.80
2022-11-15T02:27:58.304Z,5.80
2022-11-15T02:28:58.301Z,5.30
2022-11-15T02:29:58.290Z,4.90
2022-11-15T02:30:58.293Z,5.10
2022-11-15T02:31:58.265Z,6.50
2022-11-15T02:32:58.259Z,3.90
2022-11-15T02:33:58.245Z,5.20
2022-11-15T02:34:58.230Z,4.00
2022-11-15T02:35:58.238Z,6.40
2022-11-15T02:36:58.231Z,4.90
2022-11-15T02:37:58.202Z,4.40
2022-11-15T02:38:58.192Z,5.00
2022-11-15T02:39:58.177Z,5.80
2022-11-15T02:40:58.174Z,5.30
2022-11-15T02:41:58.172Z,4.70
2022-11-15T02:42:58.157Z,3.70
2022-11-15T02:43:58.157Z,5.80
2022-11-15T02:44:58.128Z,4.70
2022-11-15T02:45:58.119Z,4.60
2022-11-15T02:46:58.119Z,4.30
2022-11-15T02:47:58.098Z,5.20
2022-11-15T02:48:58.091Z,4.70
2022-11-15T02:49:58.077Z,3.80
2022-11-15T02:51:03.444Z,4.30
2022-11-15T02:51:58.059Z,3.70
2022-11-15T02:52:58.050Z,4.60
2022-11-15T02:53:58.036Z,4.30
2022-11-15T02:54:58.026Z,5.30
2022-11-15T02:55:58.030Z,5.50
2022-11-15T02:56:58.005Z,4.60
2022-11-15T02:57:58.007Z,4.70
2022-11-15T02:58:57.981Z,4.10
2022-11-15T02:59:57.975Z,3.70
2022-11-15T03:00:57.993Z,4.70
2022-11-15T03:01:57.960Z,4.80
2022-11-15T03:02:57.958Z,4.00
2022-11-15T03:03:57.938Z,4.40
2022-11-15T03:04:57.933Z,4.80
2022-11-15T03:05:57.923Z,4.30
2022-11-15T03:06:57.961Z,4.20
2022-11-15T03:08:02.096Z,5.10
2022-11-15T03:08:57.890Z,4.30
2022-11-15T03:09:57.871Z,4.40
2022-11-15T03:10:57.861Z,4.50
2022-11-15T03:11:57.866Z,6.40
2022-11-15T03:12:57.837Z,4.90
2022-11-15T03:13:57.842Z,4.30
2022-11-15T03:14:57.837Z,4.70
2022-11-15T03:15:57.826Z,3.50
2022-11-15T03:16:57.806Z,5.80
2022-11-15T03:17:57.792Z,4.10
2022-11-15T03:18:57.791Z,5.20
2022-11-15T03:19:57.805Z,5.80
2022-11-15T03:20:57.798Z,5.40
2022-11-15T03:21:57.752Z,5.10
2022-11-15T03:22:57.739Z,5.40
2022-11-15T03:23:57.733Z,5.70
2022-11-15T03:24:57.734Z,6.60
2022-11-15T03:25:57.710Z,3.50
2022-11-15T03:26:57.699Z,5.20
2022-11-15T03:27:57.694Z,2.90
2022-11-15T03:28:57.681Z,3.80
2022-11-15T03:29:57.682Z,3.70
2022-11-15T03:30:57.662Z,4.50
2022-11-15T03:31:57.646Z,3.40
2022-11-15T03:32:57.636Z,4.50
2022-11-15T03:33:57.622Z,4.70
2022-11-15T03:34:57.623Z,4.70
2022-11-15T03:35:57.623Z,5.20
2022-11-15T03:36:57.608Z,6.10
2022-11-15T03:37:57.611Z,3.40
2022-11-15T03:38:57.579Z,3.50
2022-11-15T03:39:57.563Z,4.90
2022-11-15T03:40:57.560Z,4.50
2022-11-15T03:41:57.550Z,4.10
2022-11-15T03:42:57.528Z,4.60
2022-11-15T03:43:57.523Z,4.70
2022-11-15T03:44:57.506Z,2.80
2022-11-15T03:45:57.509Z,5.00
2022-11-15T03:46:57.489Z,6.20
2022-11-15T03:47:57.479Z,3.70
2022-11-15T03:48:57.480Z,4.60
2022-11-15T03:49:57.461Z,4.40
2022-11-15T03:50:57.446Z,4.50
2022-11-15T03:51:57.455Z,4.90
2022-11-15T03:52:57.444Z,3.20
2022-11-15T03:53:57.418Z,5.30
2022-11-15T03:54:57.409Z,4.00
2022-11-15T03:55:57.402Z,4.90
2022-11-15T03:56:57.385Z,6.30
2022-11-15T03:57:57.382Z,5.20
2022-11-15T03:58:57.364Z,4.60
2022-11-15T03:59:57.355Z,4.50
2022-11-15T04:00:57.442Z,4.80
2022-11-15T04:01:57.336Z,6.60
2022-11-15T04:02:57.323Z,5.10
2022-11-15T04:03:57.322Z,4.40
2022-11-15T04:04:57.310Z,4.80
2022-11-15T04:05:57.294Z,3.40
2022-11-15T04:06:57.338Z,6.10
2022-11-15T04:07:57.274Z,5.40
2022-11-15T04:08:57.262Z,4.40
2022-11-15T04:09:57.263Z,4.10
2022-11-15T04:10:57.584Z,5.50
2022-11-15T04:11:57.249Z,3.80
2022-11-15T04:12:57.221Z,5.10
2022-11-15T04:13:57.213Z,5.20
2022-11-15T04:14:57.203Z,4.30
2022-11-15T04:15:57.203Z,5.80
2022-11-15T04:16:57.192Z,5.30
2022-11-15T04:17:57.187Z,4.60
2022-11-15T04:18:57.159Z,3.60
2022-11-15T04:19:57.154Z,7.00
2022-11-15T04:20:57.154Z,6.40
2022-11-15T04:21:57.135Z,3.90
2022-11-15T04:22:57.140Z,5.70
2022-11-15T04:23:57.122Z,4.50
2022-11-15T04:24:57.097Z,4.80
2022-11-15T04:25:57.109Z,5.20
2022-11-15T04:26:57.094Z,7.40
2022-11-15T04:27:57.068Z,5.50
2022-11-15T04:28:57.055Z,7.20
2022-11-15T04:29:57.054Z,4.40
2022-11-15T04:30:57.035Z,4.80
2022-11-15T04:31:57.035Z,4.30
2022-11-15T04:32:57.016Z,5.30
2022-11-15T04:33:57.010Z,4.60
2022-11-15T04:34:56.997Z,3.50
2022-11-15T04:35:56.989Z,5.20
2022-11-15T04:36:57.000Z,4.50
2022-11-15T04:37:56.967Z,3.70
2022-11-15T04:38:56.963Z,5.70
2022-11-15T04:39:56.965Z,7.40
2022-11-15T04:40:56.937Z,5.70
2022-11-15T04:41:56.938Z,8.10
2022-11-15T04:43:02.355Z,5.20
2022-11-15T04:43:56.913Z,5.70
2022-11-15T04:44:56.895Z,7.00
2022-11-15T04:45:56.900Z,6.30
2022-11-15T04:46:56.880Z,5.60
2022-11-15T04:47:56.862Z,5.80
2022-11-15T04:48:58.880Z,4.90
2022-11-15T04:49:56.849Z,3.90
2022-11-15T04:50:56.829Z,8.80
2022-11-15T04:51:56.832Z,6.10
2022-11-15T04:52:56.827Z,6.40
2022-11-15T04:53:56.803Z,4.60
2022-11-15T04:54:56.791Z,4.80
2022-11-15T04:55:56.782Z,4.10
2022-11-15T04:56:56.780Z,5.00
2022-11-15T04:57:56.761Z,4.40
2022-11-15T04:58:56.747Z,4.90
2022-11-15T04:59:56.744Z,5.60
2022-11-15T05:00:56.781Z,6.70
2022-11-15T05:01:56.733Z,11.00
2022-11-15T05:02:56.722Z,14.20
2022-11-15T05:03:56.699Z,10.10
2022-11-15T05:04:56.690Z,12.80
2022-11-15T05:05:56.681Z,9.70
2022-11-15T05:06:56.707Z,7.50
2022-11-15T05:07:56.675Z,5.30
2022-11-15T05:08:56.703Z,6.60
2022-11-15T05:09:56.637Z,6.70
2022-11-15T05:10:56.632Z,6.20
2022-11-15T05:11:56.630Z,5.70
2022-11-15T05:12:56.609Z,5.40
2022-11-15T05:13:56.608Z,6.60
2022-11-15T05:14:56.607Z,5.10
2022-11-15T05:15:56.575Z,6.70
2022-11-15T05:16:56.563Z,5.70
2022-11-15T05:17:56.564Z,5.80
2022-11-15T05:18:56.573Z,5.50
2022-11-15T05:19:56.538Z,5.10
2022-11-15T05:20:56.544Z,5.90
2022-11-15T05:21:56.517Z,5.30
2022-11-15T05:22:56.512Z,5.30
2022-11-15T05:23:56.518Z,5.20
2022-11-15T05:24:56.483Z,6.10
2022-11-15T05:25:56.478Z,6.60
2022-11-15T05:26:56.460Z,5.00
2022-11-15T05:27:56.470Z,5.40
2022-11-15T05:28:56.439Z,4.80
2022-11-15T05:29:56.434Z,6.40
2022-11-15T05:30:56.421Z,5.40
2022-11-15T05:31:56.413Z,5.20
2022-11-15T05:32:56.407Z,5.30
2022-11-15T05:33:56.395Z,3.90
2022-11-15T05:34:56.387Z,7.00
2022-11-15T05:35:56.375Z,6.00
2022-11-15T05:36:56.361Z,7.80
2022-11-15T05:37:56.351Z,5.30
2022-11-15T05:38:56.375Z,8.50
2022-11-15T05:39:56.368Z,7.10
2022-11-15T05:40:56.318Z,5.80
2022-11-15T05:41:56.304Z,5.70
2022-11-15T05:42:56.323Z,5.40
2022-11-15T05:43:56.298Z,5.20
2022-11-15T05:44:56.292Z,7.10
2022-11-15T05:45:56.266Z,6.20
2022-11-15T05:46:56.269Z,3.70
2022-11-15T05:47:56.245Z,5.00
2022-11-15T05:48:56.232Z,4.10
2022-11-15T05:49:56.239Z,7.10
2022-11-15T05:50:56.212Z,5.10
2022-11-15T05:51:56.225Z,5.30
2022-11-15T05:52:58.614Z,6.30
2022-11-15T05:53:56.198Z,4.50
2022-11-15T05:54:56.167Z,6.70
2022-11-15T05:55:56.148Z,4.60
2022-11-15T05:56:56.151Z,5.90
2022-11-15T05:57:56.106Z,5.70
2022-11-15T05:58:59.437Z,5.70
2022-11-15T05:59:56.139Z,6.40
2022-11-15T06:00:56.104Z,4.80
2022-11-15T06:01:56.157Z,5.90
2022-11-15T06:02:56.042Z,5.40
2022-11-15T06:03:56.077Z,6.40
2022-11-15T06:04:56.018Z,5.20
2022-11-15T06:05:56.003Z,5.20
2022-11-15T06:06:56.047Z,5.20
2022-11-15T06:07:55.978Z,6.00
2022-11-15T06:08:55.968Z,5.40
2022-11-15T06:09:55.976Z,6.30
2022-11-15T06:10:55.944Z,8.70
2022-11-15T06:11:55.939Z,5.90
2022-11-15T06:12:55.948Z,6.40
2022-11-15T06:13:55.967Z,6.30
2022-11-15T06:14:55.902Z,7.50
2022-11-15T06:15:55.913Z,8.10
2022-11-15T06:16:55.886Z,9.10
2022-11-15T06:17:55.905Z,5.20
2022-11-15T06:18:55.874Z,6.70
2022-11-15T06:19:55.854Z,5.20
2022-11-15T06:20:55.840Z,5.50
2022-11-15T06:21:55.866Z,6.50
2022-11-15T06:22:55.841Z,5.40
2022-11-15T06:23:55.828Z,5.20
2022-11-15T06:24:55.797Z,9.20
2022-11-15T06:25:55.792Z,5.60
2022-11-15T06:26:55.805Z,6.60
2022-11-15T06:27:55.774Z,5.90
2022-11-15T06:28:55.772Z,4.80
2022-11-15T06:29:55.753Z,5.40
2022-11-15T06:30:55.736Z,4.40
2022-11-15T06:31:55.730Z,8.30
2022-11-15T06:32:55.719Z,3.80
2022-11-15T06:33:55.740Z,5.70
2022-11-15T06:34:55.707Z,5.30
2022-11-15T06:35:55.687Z,4.70
2022-11-15T06:36:55.676Z,5.90
2022-11-15T06:37:55.677Z,6.40
2022-11-15T06:38:55.667Z,4.30
2022-11-15T06:39:55.676Z,7.40
2022-11-15T06:40:55.638Z,5.00
2022-11-15T06:41:55.621Z,6.70
2022-11-15T06:42:55.609Z,6.80
2022-11-15T06:43:55.608Z,5.60
2022-11-15T06:44:55.616Z,5.70
2022-11-15T06:45:55.591Z,5.80
2022-11-15T06:46:55.580Z,6.80
2022-11-15T06:47:55.571Z,6.40
2022-11-15T06:48:55.557Z,6.40
2022-11-15T06:49:55.545Z,6.70
2022-11-15T06:50:55.546Z,6.70
2022-11-15T06:51:55.521Z,7.60
2022-11-15T06:52:55.508Z,6.10
2022-11-15T06:53:55.502Z,7.40
2022-11-15T06:54:55.484Z,6.40
2022-11-15T06:55:55.859Z,6.70
2022-11-15T06:56:55.486Z,8.30
2022-11-15T06:57:55.457Z,9.30
2022-11-15T06:58:55.439Z,8.00
2022-11-15T06:59:55.436Z,11.60
2022-11-15T07:00:55.478Z,7.00
2022-11-15T07:01:55.422Z,9.90
2022-11-15T07:02:55.525Z,11.40
2022-11-15T07:03:55.415Z,13.20
2022-11-15T07:04:55.398Z,8.50
2022-11-15T07:05:55.381Z,8.40
2022-11-15T07:06:55.398Z,8.70
2022-11-15T07:07:55.355Z,7.30
2022-11-15T07:08:55.372Z,7.00
2022-11-15T07:09:55.345Z,6.40
2022-11-15T07:10:55.356Z,6.90
2022-11-15T07:11:55.312Z,6.60
2022-11-15T07:12:55.306Z,4.10
2022-11-15T07:13:55.298Z,5.00
2022-11-15T07:14:55.277Z,5.50
2022-11-15T07:15:55.262Z,5.60
2022-11-15T07:16:55.256Z,6.40
2022-11-15T07:17:55.246Z,4.80
2022-11-15T07:18:55.233Z,4.40
2022-11-15T07:19:55.252Z,6.60
2022-11-15T07:20:55.220Z,5.30
2022-11-15T07:21:55.204Z,7.90
2022-11-15T07:22:55.195Z,6.80
2022-11-15T07:23:55.182Z,5.30
2022-11-15T07:24:55.217Z,7.30
2022-11-15T07:25:55.187Z,6.00
2022-11-15T07:26:55.163Z,5.30
2022-11-15T07:27:55.139Z,6.60
2022-11-15T07:28:55.131Z,7.20
2022-11-15T07:29:55.124Z,7.80
2022-11-15T07:30:55.112Z,6.80
2022-11-15T07:31:55.110Z,8.10
2022-11-15T07:32:55.089Z,6.90
2022-11-15T07:33:55.076Z,6.90
2022-11-15T07:34:55.090Z,6.80
2022-11-15T07:35:55.055Z,7.10
2022-11-15T07:36:55.047Z,5.40
2022-11-15T07:37:55.050Z,6.00
2022-11-15T07:38:55.033Z,7.20
2022-11-15T07:39:55.049Z,6.90
2022-11-15T07:40:55.030Z,7.20
2022-11-15T07:41:54.991Z,6.50
2022-11-15T07:42:55.000Z,8.00
2022-11-15T07:43:54.991Z,7.60
2022-11-15T07:44:54.967Z,7.70
2022-11-15T07:45:59.150Z,8.40
2022-11-15T07:46:54.955Z,7.60
2022-11-15T07:47:54.951Z,8.00
2022-11-15T07:48:54.932Z,10.30
2022-11-15T07:49:54.938Z,8.40
2022-11-15T07:50:54.914Z,7.40
2022-11-15T07:51:54.889Z,8.30
2022-11-15T07:52:54.884Z,10.40
2022-11-15T07:53:54.873Z,8.40
2022-11-15T07:54:54.893Z,8.50
2022-11-15T07:55:54.883Z,10.90
2022-11-15T07:56:54.873Z,8.60
2022-11-15T07:57:54.837Z,7.60
2022-11-15T07:58:54.823Z,7.30
2022-11-15T07:59:54.833Z,9.00
2022-11-15T08:00:54.931Z,7.50
2022-11-15T08:01:54.925Z,8.00
2022-11-15T08:02:54.922Z,7.20
2022-11-15T08:03:54.772Z,6.60
2022-11-15T08:04:54.763Z,7.30
2022-11-15T08:05:54.745Z,8.00
2022-11-15T08:06:54.800Z,6.00
2022-11-15T08:07:54.770Z,9.10
2022-11-15T08:08:54.730Z,6.30
2022-11-15T08:09:54.705Z,6.60
2022-11-15T08:10:54.761Z,7.40
2022-11-15T08:11:54.683Z,7.30
2022-11-15T08:12:54.761Z,7.10
2022-11-15T08:13:54.663Z,9.20
2022-11-15T08:14:54.666Z,5.80
2022-11-15T08:15:57.710Z,6.60
2022-11-15T08:16:54.685Z,8.10
2022-11-15T08:17:54.624Z,6.90
2022-11-15T08:18:54.716Z,7.40
2022-11-15T08:19:54.609Z,6.90
2022-11-15T08:20:54.615Z,7.80
2022-11-15T08:21:54.615Z,8.30
2022-11-15T08:22:54.584Z,8.60
2022-11-15T08:23:54.589Z,8.90
2022-11-15T08:24:54.582Z,8.70
2022-11-15T08:25:54.566Z,7.30
2022-11-15T08:26:54.636Z,6.90
2022-11-15T08:27:54.552Z,9.50
2022-11-15T08:28:54.535Z,7.60
2022-11-15T08:29:59.346Z,7.40
2022-11-15T08:30:54.514Z,9.40
2022-11-15T08:31:54.509Z,8.40
2022-11-15T08:32:54.474Z,7.30
2022-11-15T08:33:54.557Z,7.20
2022-11-15T08:34:54.451Z,7.60
2022-11-15T08:35:54.436Z,5.60
2022-11-15T08:36:54.429Z,6.10
2022-11-15T08:37:54.415Z,5.40
2022-11-15T08:38:54.417Z,5.20
2022-11-15T08:39:54.427Z,7.00
2022-11-15T08:40:54.391Z,5.40
2022-11-15T08:41:54.387Z,5.40
2022-11-15T08:42:54.373Z,8.80
2022-11-15T08:43:54.415Z,5.90
2022-11-15T08:44:54.378Z,5.30
2022-11-15T08:45:54.336Z,5.30
2022-11-15T08:46:54.333Z,6.90
2022-11-15T08:47:54.814Z,5.40
2022-11-15T08:48:54.306Z,5.30
2022-11-15T08:49:54.292Z,6.70
2022-11-15T08:50:54.304Z,8.30
2022-11-15T08:51:54.309Z,7.00
2022-11-15T08:52:54.263Z,6.10
2022-11-15T08:53:54.260Z,7.50
2022-11-15T08:54:54.264Z,6.20
2022-11-15T08:55:54.264Z,6.60
2022-11-15T08:56:54.224Z,6.80
2022-11-15T08:57:54.211Z,6.90
2022-11-15T08:58:54.263Z,8.30
2022-11-15T08:59:54.229Z,5.20
2022-11-15T09:00:54.187Z,6.20
2022-11-15T09:01:54.238Z,7.70
2022-11-15T09:02:54.401Z,5.40
2022-11-15T09:03:54.143Z,7.40
2022-11-15T09:04:54.130Z,6.80
2022-11-15T09:05:54.359Z,7.80
2022-11-15T09:06:54.164Z,5.80
2022-11-15T09:07:54.096Z,7.30
2022-11-15T09:08:54.254Z,8.00
2022-11-15T09:09:54.084Z,6.80
2022-11-15T09:10:54.188Z,5.20
2022-11-15T09:11:58.034Z,9.50
2022-11-15T09:12:54.105Z,5.60
2022-11-15T09:13:54.072Z,5.90
2022-11-15T09:14:54.073Z,6.70
2022-11-15T09:15:54.054Z,7.60
2022-11-15T09:16:54.076Z,5.90
2022-11-15T09:17:54.013Z,8.20
2022-11-15T09:18:53.985Z,6.80
2022-11-15T09:19:53.986Z,5.90
2022-11-15T09:20:53.961Z,4.60
2022-11-15T09:21:53.981Z,6.50
2022-11-15T09:22:53.976Z,7.60
2022-11-15T09:23:53.959Z,6.20
2022-11-15T09:24:53.933Z,6.30
2022-11-15T09:25:53.918Z,6.30
2022-11-15T09:26:53.914Z,8.00
2022-11-15T09:27:53.896Z,5.70
2022-11-15T09:28:53.902Z,7.80
2022-11-15T09:29:53.867Z,7.10
2022-11-15T09:30:53.857Z,8.10
2022-11-15T09:31:53.859Z,5.10
2022-11-15T09:32:53.863Z,5.10
2022-11-15T09:33:53.831Z,6.40
2022-11-15T09:34:53.814Z,5.60
2022-11-15T09:35:53.811Z,7.50
2022-11-15T09:36:53.793Z,5.10
2022-11-15T09:37:56.495Z,7.30
2022-11-15T09:38:53.794Z,9.30
2022-11-15T09:39:53.785Z,6.60
2022-11-15T09:40:53.753Z,6.50
2022-11-15T09:41:53.748Z,5.10
2022-11-15T09:42:53.727Z,6.00
2022-11-15T09:43:53.713Z,5.80
2022-11-15T09:44:53.733Z,6.00
2022-11-15T09:45:53.692Z,5.90
2022-11-15T09:46:53.692Z,7.30
2022-11-15T09:47:53.668Z,5.10
2022-11-15T09:48:53.664Z,6.20
2022-11-15T09:49:56.748Z,6.00
2022-11-15T09:50:53.705Z,6.60
2022-11-15T09:51:53.753Z,6.00
2022-11-15T09:52:53.618Z,4.70
2022-11-15T09:54:54.496Z,6.40
2022-11-15T09:55:53.612Z,6.30
2022-11-15T09:56:53.586Z,5.90
2022-11-15T09:57:53.574Z,6.50
2022-11-15T09:58:53.556Z,5.80
2022-11-15T09:59:53.555Z,5.30
2022-11-15T10:00:53.593Z,6.50
2022-11-15T10:01:53.526Z,8.80
2022-11-15T10:02:53.522Z,5.70
2022-11-15T10:03:53.540Z,5.90
2022-11-15T10:04:53.496Z,4.90
2022-11-15T10:05:53.477Z,5.80
2022-11-15T10:06:53.531Z,6.90
2022-11-15T10:07:53.456Z,6.90
2022-11-15T10:08:53.458Z,6.80
2022-11-15T10:09:53.445Z,6.40
2022-11-15T10:11:09.676Z,5.30
2022-11-15T10:11:53.425Z,6.40
2022-11-15T10:12:53.422Z,6.00
2022-11-15T10:13:53.417Z,6.70
2022-11-15T10:14:54.821Z,6.60
2022-11-15T10:15:53.475Z,5.90
2022-11-15T10:16:53.375Z,7.60
2022-11-15T10:17:53.358Z,5.00
2022-11-15T10:18:53.379Z,5.50
2022-11-15T10:19:53.340Z,5.30
2022-11-15T10:20:53.329Z,4.90
2022-11-15T10:21:53.316Z,5.90
2022-11-15T10:22:53.318Z,6.40
2022-11-15T10:23:53.321Z,4.40
2022-11-15T10:24:53.288Z,5.10
2022-11-15T10:25:53.275Z,4.30
2022-11-15T10:26:53.263Z,5.10
2022-11-15T10:27:53.271Z,5.60
2022-11-15T10:28:53.235Z,4.70
2022-11-15T10:29:53.240Z,4.70
2022-11-15T10:30:53.224Z,6.30
2022-11-15T10:31:53.204Z,5.90
2022-11-15T10:32:53.250Z,3.90
2022-11-15T10:33:53.208Z,4.80
2022-11-15T10:34:53.202Z,5.60
2022-11-15T10:35:53.194Z,5.10
2022-11-15T10:36:53.159Z,5.10
2022-11-15T10:37:53.148Z,5.30
2022-11-15T10:38:53.173Z,5.00
2022-11-15T10:39:53.123Z,5.30
2022-11-15T10:40:53.139Z,5.60
2022-11-15T10:41:53.101Z,5.10
2022-11-15T10:42:53.163Z,4.60
2022-11-15T10:43:54.052Z,7.20
2022-11-15T10:44:53.063Z,5.00
2022-11-15T10:45:53.061Z,3.80
2022-11-15T10:46:53.071Z,5.70
2022-11-15T10:47:53.048Z,4.00
2022-11-15T10:48:53.050Z,4.60
2022-11-15T10:49:53.024Z,4.60
2022-11-15T10:50:53.008Z,4.30
2022-11-15T10:51:53.042Z,4.70
2022-11-15T10:52:52.986Z,5.10
2022-11-15T10:53:52.997Z,4.90
2022-11-15T10:54:52.988Z,4.50
2022-11-15T10:55:52.955Z,4.50
2022-11-15T10:56:52.943Z,7.70
2022-11-15T10:57:52.987Z,5.10
2022-11-15T10:58:52.947Z,5.30
2022-11-15T10:59:52.919Z,7.80
2022-11-15T11:00:52.953Z,5.60
2022-11-15T11:01:52.905Z,4.80
2022-11-15T11:02:52.892Z,4.70
2022-11-15T11:03:52.877Z,4.90
2022-11-15T11:04:52.904Z,4.50
2022-11-15T11:05:52.883Z,5.40
2022-11-15T11:06:52.895Z,4.90
2022-11-15T11:07:52.867Z,4.90
2022-11-15T11:08:52.838Z,5.30
2022-11-15T11:09:52.812Z,5.20
2022-11-15T11:10:56.042Z,4.80
2022-11-15T11:11:52.780Z,5.90
2022-11-15T11:12:52.770Z,4.70
2022-11-15T11:13:52.786Z,7.40
2022-11-15T11:14:52.750Z,5.60
2022-11-15T11:15:52.735Z,5.20
2022-11-15T11:16:52.738Z,5.40
2022-11-15T11:17:52.715Z,6.20
2022-11-15T11:18:52.741Z,5.30
2022-11-15T11:19:52.730Z,5.00
2022-11-15T11:20:52.692Z,8.70
2022-11-15T11:21:52.672Z,4.90
2022-11-15T11:22:52.667Z,5.00
2022-11-15T11:23:52.681Z,5.50
2022-11-15T11:24:52.651Z,4.80
2022-11-15T11:25:52.634Z,4.00
2022-11-15T11:26:56.851Z,4.70
2022-11-15T11:27:52.613Z,4.70
2022-11-15T11:28:52.617Z,4.10
2022-11-15T11:29:52.628Z,5.00
2022-11-15T11:30:52.576Z,5.80
2022-11-15T11:31:52.569Z,5.90
2022-11-15T11:32:55.294Z,6.00
2022-11-15T11:33:52.572Z,5.50
2022-11-15T11:34:52.556Z,6.00
2022-11-15T11:35:52.531Z,5.30
2022-11-15T11:36:52.527Z,10.10
2022-11-15T11:37:52.513Z,6.70
2022-11-15T11:38:55.800Z,5.90
2022-11-15T11:39:52.493Z,5.20
2022-11-15T11:40:52.516Z,5.70
2022-11-15T11:41:52.461Z,4.20
2022-11-15T11:42:52.448Z,5.20
2022-11-15T11:43:52.496Z,4.80
2022-11-15T11:44:52.436Z,4.20
2022-11-15T11:45:52.439Z,5.90
2022-11-15T11:46:52.408Z,5.50
2022-11-15T11:47:52.418Z,6.60
2022-11-15T11:48:52.385Z,8.20
2022-11-15T11:49:52.379Z,4.80
2022-11-15T11:50:52.454Z,3.50
2022-11-15T11:51:52.381Z,6.20
2022-11-15T11:52:52.345Z,5.10
2022-11-15T11:53:52.386Z,7.10
2022-11-15T11:54:52.330Z,4.00
2022-11-15T11:55:52.319Z,6.60
2022-11-15T11:56:52.313Z,5.50
2022-11-15T11:57:52.300Z,4.10
2022-11-15T11:58:52.287Z,4.00
2022-11-15T11:59:52.318Z,3.70
2022-11-15T12:00:52.266Z,3.30
2022-11-15T12:01:52.389Z,3.90
2022-11-15T12:02:52.349Z,3.90
2022-11-15T12:03:52.232Z,4.30
2022-11-15T12:04:52.217Z,3.00
2022-11-15T12:05:52.242Z,3.50
2022-11-15T12:06:52.249Z,3.70
2022-11-15T12:07:52.204Z,4.40
2022-11-15T12:08:52.226Z,4.80
2022-11-15T12:09:52.172Z,3.90
2022-11-15T12:10:52.169Z,4.20
2022-11-15T12:11:52.168Z,3.70
2022-11-15T12:12:52.131Z,3.70
2022-11-15T12:13:52.129Z,3.40
2022-11-15T12:14:52.142Z,3.30
2022-11-15T12:15:52.107Z,4.60
2022-11-15T12:16:52.092Z,5.60
2022-11-15T12:17:52.102Z,2.30
2022-11-15T12:18:52.076Z,6.80
2022-11-15T12:19:52.091Z,3.30
2022-11-15T12:20:52.075Z,4.00
2022-11-15T12:21:52.087Z,3.10
2022-11-15T12:22:52.086Z,3.20
2022-11-15T12:23:52.048Z,4.40
2022-11-15T12:24:52.004Z,4.20
2022-11-15T12:25:52.000Z,3.20
2022-11-15T12:26:52.014Z,2.70
2022-11-15T12:27:52.014Z,4.20
2022-11-15T12:29:06.955Z,2.80
2022-11-15T12:29:52.080Z,4.00
2022-11-15T12:30:51.943Z,4.40
2022-11-15T12:31:51.940Z,4.30
2022-11-15T12:32:51.926Z,4.90
2022-11-15T12:33:51.913Z,4.00
2022-11-15T12:34:51.930Z,3.90
2022-11-15T12:35:51.982Z,2.80
2022-11-15T12:36:51.888Z,4.80
2022-11-15T12:37:51.892Z,3.50
2022-11-15T12:38:51.886Z,4.00
2022-11-15T12:39:51.858Z,3.20
2022-11-15T12:40:51.867Z,3.00
2022-11-15T12:41:51.865Z,4.10
2022-11-15T12:42:51.827Z,5.10
2022-11-15T12:43:51.821Z,2.80
2022-11-15T12:44:51.823Z,3.60
2022-11-15T12:45:51.791Z,5.20
2022-11-15T12:46:51.847Z,2.70
2022-11-15T12:47:51.785Z,3.40
2022-11-15T12:48:51.763Z,3.40
2022-11-15T12:49:51.759Z,3.60
2022-11-15T12:50:51.736Z,3.30
2022-11-15T12:51:51.725Z,4.00
2022-11-15T12:52:51.741Z,4.00
2022-11-15T12:53:51.701Z,4.40
2022-11-15T12:54:51.692Z,5.40
2022-11-15T12:55:51.680Z,3.80
2022-11-15T12:56:51.675Z,4.10
2022-11-15T12:57:51.663Z,2.80
2022-11-15T12:58:51.716Z,3.50
2022-11-15T12:59:51.643Z,5.40
2022-11-15T13:00:51.721Z,3.60
2022-11-15T13:01:51.673Z,3.60
2022-11-15T13:02:51.637Z,3.20
2022-11-15T13:03:51.630Z,3.90
2022-11-15T13:04:51.586Z,3.40
2022-11-15T13:05:51.573Z,3.10
2022-11-15T13:06:51.634Z,3.90
2022-11-15T13:07:51.589Z,2.70
2022-11-15T13:08:51.560Z,4.80
2022-11-15T13:09:51.567Z,5.30
2022-11-15T13:10:51.520Z,2.10
2022-11-15T13:11:51.509Z,3.20
2022-11-15T13:12:51.524Z,4.60
2022-11-15T13:13:51.516Z,3.30
2022-11-15T13:14:51.483Z,2.50
2022-11-15T13:15:51.471Z,4.70
2022-11-15T13:16:51.462Z,2.60
2022-11-15T13:17:51.474Z,3.20
2022-11-15T13:18:51.463Z,3.00